createdAt,value
2023-02-14T00:01:53.058Z,13.40
2023-02-14T00:23:38.932Z,12.60
2023-02-14T00:45:24.730Z,12.20
2023-02-14T01:07:11.471Z,12.40
2023-02-14T01:28:57.974Z,12.70
2023-02-14T01:50:47.141Z,11.70
2023-02-14T02:12:35.582Z,11.70
2023-02-14T02:35:09.246Z,11.30
2023-02-14T02:56:59.830Z,10.70
2023-02-14T03:19:02.120Z,11.10
2023-02-14T03:40:54.709Z,11.70
2023-02-14T04:02:46.874Z,12.00
2023-02-14T04:24:32.867Z,10.90
2023-02-14T04:46:18.650Z,11.10
2023-02-14T05:08:04.399Z,11.70
2023-02-14T05:29:50.596Z,13.30
2023-02-14T05:51:39.209Z,13.60
2023-02-14T06:13:25.477Z,14.30
2023-02-14T06:35:13.773Z,13.80
2023-02-14T06:56:59.578Z,12.90
2023-02-14T07:18:45.384Z,13.30
2023-02-14T07:40:31.653Z,15.00
2023-02-14T08:02:17.499Z,13.40
2023-02-14T08:24:05.075Z,13.80
2023-02-14T08:45:53.317Z,13.30
2023-02-14T09:07:40.063Z,12.30
2023-02-14T09:29:31.648Z,11.10
2023-02-14T09:51:21.114Z,11.00
2023-02-14T10:13:15.978Z,10.00
2023-02-14T10:35:17.326Z,9.50
2023-02-14T10:57:08.189Z,8.00
2023-02-14T11:19:11.693Z,9.10
2023-02-14T11:41:00.383Z,8.20
2023-02-14T12:02:49.024Z,6.90
2023-02-14T12:24:39.160Z,6.00
2023-02-14T12:46:45.981Z,4.90
2023-02-14T13:08:45.602Z,5.30
2023-02-14T13:30:38.631Z,5.80
2023-02-14T13:52:42.535Z,6.20
2023-02-14T14:14:39.860Z,7.00
2023-02-14T14:36:32.955Z,6.80
2023-02-14T14:58:35.649Z,12.70
2023-02-14T15:20:24.008Z,8.20
2023-02-14T15:42:25.962Z,8.50
2023-02-14T16:04:14.417Z,9.90
2023-02-14T16:26:01.159Z,8.10
2023-02-14T16:47:49.318Z,8.60
2023-02-14T17:09:40.090Z,10.10
2023-02-14T17:31:26.290Z,10.00
2023-02-14T17:53:18.078Z,11.10
2023-02-14T18:15:06.088Z,8.90
2023-02-14T18:36:51.982Z,11.50
2023-02-14T18:58:42.241Z,9.20
2023-02-14T19:20:28.328Z,10.80
2023-02-14T19:42:14.160Z,14.70
2023-02-14T20:04:01.145Z,15.70
2023-02-14T20:25:47.460Z,16.80
2023-02-14T20:47:33.481Z,17.20
2023-02-14T21:09:20.948Z,19.40
2023-02-14T21:31:09.821Z,22.50
2023-02-14T21:53:01.781Z,21.90
2023-02-14T22:14:48.556Z,23.50
2023-02-14T22:36:36.819Z,21.40
2023-02-14T22:58:22.923Z,19.50
2023-02-14T23:20:29.719Z,18.20
2023-02-14T23:42:17.329Z,21.00
